DZI weather

Codazzi Airport
Hacienda Borrero, César Department, Colombia

Public forecast

Using degrees Celsius for public forecast. Weather courtesy of forecast.io.

METAR (pilot weather report)

Report is more than 2 hours old.

Closest report is Alfonso López Pumarejo Airport, 51.5 nm (95.4 km) NNE. Retrieved 2019/03/26 18:00 UTC (2 hours ago):

SKVP 261800Z 08011KT 9999 FEW020 38/15 A2980

TAF (pilot weather forecast)

Forecast is more than 12 hours old.

Closest forecast is Ernesto Cortissoz International Airport, 110.4 nm (204.4 km) NW. Retrieved 2019/03/24 18:34 UTC (2 days ago):

TAF SKBQ 241700Z 2418/2518 03014KT 9999 FEW020 TEMPO 2410/2412 4000 BR SCT010 TX33/2417Z TN25/2510Z